首页
METAR-TAF:

METAR-TAF

机场 :

尤馬, 亞利桑那州, 美国

纬度: 32-37-25N, 经度: 113-45-50W, 海拔: 64米

当前天气观测

该预报发布于49分钟前的22:57 UTC
风速16节,风向
温度 39°C
湿度 31%
气压 1008 hPa
能見度: 16.1公里
天空无云

METAR: KNYL 212257Z AUTO 18016KT 10SM CLR 39/19 A2978 RMK AO2 SLP082 T03940194 $

时间: 16:46 (23:46 UTC)

预报

预报有效从21日的 21点(UTC)到 22日的 21点(UTC)
风速8节,风向
能见度10公里或以上
天空无云
短暂存在
从 21日的 21点(UTC)到 22日的 03点(UTC)
风速15节,风向南转西南,有时为25节阵风
能見度: 2214

TAF: KNYL 2121/2221 17008KT 9999 SKC QNH2972INS TEMPO 2121/2203 20015G25KT AUTOMATED SENSOR METWATCH 2121 TIL 2214 T42/2123Z T29/2213Z

超过4000个机场的气象观测和天气预报(METAR&TAF报告)。

可查询的气象台以黄色和红色小点在地图上表示。

将鼠标移到小点上方,可查看气象台名称。

然后点击查看天气观测和预报。

如需切换地图:点击带黑十字的绿色按钮放大地图;点击带横线的绿色按钮缩小地图;或者点击绿色箭头查看邻近地区的地图。


METAR-TAF: